PILOTS ONLINE: 504    ATC ONLINE: 58

Location

IATA NAN
City Nadi
Country  Fiji
Latitude 17° 45' 19" S
Longitude 177° 26' 34" E
Elevation 59 ft
Type Medium Airport

Weather

METAR
2014/07/12 21:00
NFFN 122100Z 13006KT 9999 FEW028 SCT050 20/18 Q1012 NOSIG
TAF
2014/07/12 18:03
TAF TAF NFFN 121602Z 1218/1318 VRB03KT 9999 FEW030 
      BECMG 1221/1223 29012KT 
      BECMG 1304/1306 VRB03KT

Runways

02/20 10739 ft / 150 ft
09/27 7007 ft / 150 ft

Outbound flights

Inbound flights


Spotted incorrect airport information? Please login with your VATSIM ID.